sensor_id;sensor_type;location;lat;lon;timestamp;P1;durP1;ratioP1;P2;durP2;ratioP2
10383;SDS011;5238;43.508;4.980;2023-05-16T00:00:42;4.93;;;4.40;;
10383;SDS011;5238;43.508;4.980;2023-05-16T00:03:12;5.63;;;5.22;;
10383;SDS011;5238;43.508;4.980;2023-05-16T00:05:39;5.22;;;4.72;;
10383;SDS011;5238;43.508;4.980;2023-05-16T00:08:06;5.72;;;5.15;;
10383;SDS011;5238;43.508;4.980;2023-05-16T00:10:33;6.65;;;4.88;;
10383;SDS011;5238;43.508;4.980;2023-05-16T00:13:00;5.18;;;4.78;;
10383;SDS011;5238;43.508;4.980;2023-05-16T00:15:28;5.70;;;5.20;;
10383;SDS011;5238;43.508;4.980;2023-05-16T00:17:57;5.15;;;4.55;;
10383;SDS011;5238;43.508;4.980;2023-05-16T00:20:27;5.30;;;4.85;;
10383;SDS011;5238;43.508;4.980;2023-05-16T00:22:56;5.70;;;5.20;;
10383;SDS011;5238;43.508;4.980;2023-05-16T00:25:25;5.78;;;5.15;;
10383;SDS011;5238;43.508;4.980;2023-05-16T00:27:53;5.72;;;5.22;;
10383;SDS011;5238;43.508;4.980;2023-05-16T00:30:20;4.85;;;4.45;;
10383;SDS011;5238;43.508;4.980;2023-05-16T00:32:47;5.22;;;4.72;;
10383;SDS011;5238;43.508;4.980;2023-05-16T00:35:17;5.32;;;4.70;;
10383;SDS011;5238;43.508;4.980;2023-05-16T00:37:44;4.90;;;4.50;;
10383;SDS011;5238;43.508;4.980;2023-05-16T00:40:11;5.47;;;5.05;;
10383;SDS011;5238;43.508;4.980;2023-05-16T00:42:38;5.70;;;4.63;;
10383;SDS011;5238;43.508;4.980;2023-05-16T00:45:05;5.30;;;4.88;;
10383;SDS011;5238;43.508;4.980;2023-05-16T00:47:36;7.00;;;4.60;;
10383;SDS011;5238;43.508;4.980;2023-05-16T00:50:05;6.07;;;5.22;;
10383;SDS011;5238;43.508;4.980;2023-05-16T00:52:36;5.72;;;4.82;;
10383;SDS011;5238;43.508;4.980;2023-05-16T00:55:04;5.45;;;4.97;;
10383;SDS011;5238;43.508;4.980;2023-05-16T00:57:32;5.45;;;5.03;;
10383;SDS011;5238;43.508;4.980;2023-05-16T00:59:58;5.63;;;5.05;;
10383;SDS011;5238;43.508;4.980;2023-05-16T01:02:26;6.07;;;4.82;;
10383;SDS011;5238;43.508;4.980;2023-05-16T01:04:58;5.70;;;5.20;;
10383;SDS011;5238;43.508;4.980;2023-05-16T01:07:25;5.82;;;5.32;;
10383;SDS011;5238;43.508;4.980;2023-05-16T01:09:54;5.10;;;4.70;;
10383;SDS011;5238;43.508;4.980;2023-05-16T01:12:27;5.88;;;5.38;;
10383;SDS011;5238;43.508;4.980;2023-05-16T01:15:07;6.40;;;5.07;;
10383;SDS011;5238;43.508;4.980;2023-05-16T01:17:40;6.70;;;5.78;;
10383;SDS011;5238;43.508;4.980;2023-05-16T01:20:18;8.65;;;5.72;;
10383;SDS011;5238;43.508;4.980;2023-05-16T01:23:03;5.68;;;5.07;;
10383;SDS011;5238;43.508;4.980;2023-05-16T01:25:45;7.10;;;5.82;;
10383;SDS011;5238;43.508;4.980;2023-05-16T01:28:25;6.07;;;5.57;;
10383;SDS011;5238;43.508;4.980;2023-05-16T01:30:54;6.25;;;5.35;;
10383;SDS011;5238;43.508;4.980;2023-05-16T01:33:23;5.35;;;4.90;;
10383;SDS011;5238;43.508;4.980;2023-05-16T01:35:52;6.30;;;5.32;;
10383;SDS011;5238;43.508;4.980;2023-05-16T01:38:25;5.72;;;5.15;;
10383;SDS011;5238;43.508;4.980;2023-05-16T01:40:57;6.50;;;5.85;;
10383;SDS011;5238;43.508;4.980;2023-05-16T01:43:32;6.78;;;5.70;;
10383;SDS011;5238;43.508;4.980;2023-05-16T01:46:02;5.50;;;5.00;;
10383;SDS011;5238;43.508;4.980;2023-05-16T01:48:34;6.18;;;5.68;;
10383;SDS011;5238;43.508;4.980;2023-05-16T01:51:07;7.25;;;5.43;;
10383;SDS011;5238;43.508;4.980;2023-05-16T01:53:40;5.35;;;4.95;;
10383;SDS011;5238;43.508;4.980;2023-05-16T01:56:10;6.05;;;5.45;;
10383;SDS011;5238;43.508;4.980;2023-05-16T01:58:43;6.22;;;5.57;;
10383;SDS011;5238;43.508;4.980;2023-05-16T02:01:13;5.25;;;4.75;;
10383;SDS011;5238;43.508;4.980;2023-05-16T02:03:40;5.30;;;4.72;;
10383;SDS011;5238;43.508;4.980;2023-05-16T02:06:09;5.28;;;4.82;;
10383;SDS011;5238;43.508;4.980;2023-05-16T02:08:38;5.40;;;4.90;;
10383;SDS011;5238;43.508;4.980;2023-05-16T02:11:05;6.25;;;5.70;;
10383;SDS011;5238;43.508;4.980;2023-05-16T02:13:32;5.10;;;4.65;;
10383;SDS011;5238;43.508;4.980;2023-05-16T02:16:00;5.70;;;5.18;;
10383;SDS011;5238;43.508;4.980;2023-05-16T02:18:29;5.32;;;4.82;;
10383;SDS011;5238;43.508;4.980;2023-05-16T02:20:56;6.25;;;5.75;;
10383;SDS011;5238;43.508;4.980;2023-05-16T02:23:25;5.85;;;5.35;;
10383;SDS011;5238;43.508;4.980;2023-05-16T02:25:52;5.38;;;4.97;;
10383;SDS011;5238;43.508;4.980;2023-05-16T02:28:19;5.68;;;5.10;;
10383;SDS011;5238;43.508;4.980;2023-05-16T02:30:54;6.60;;;6.03;;
10383;SDS011;5238;43.508;4.980;2023-05-16T02:33:24;6.38;;;5.78;;
10383;SDS011;5238;43.508;4.980;2023-05-16T02:35:52;5.72;;;5.22;;
10383;SDS011;5238;43.508;4.980;2023-05-16T02:38:19;5.40;;;4.90;;
10383;SDS011;5238;43.508;4.980;2023-05-16T02:40:46;6.38;;;5.78;;
10383;SDS011;5238;43.508;4.980;2023-05-16T02:43:13;6.75;;;6.13;;
10383;SDS011;5238;43.508;4.980;2023-05-16T02:45:40;6.47;;;5.68;;
10383;SDS011;5238;43.508;4.980;2023-05-16T02:48:10;8.48;;;5.13;;
10383;SDS011;5238;43.508;4.980;2023-05-16T02:50:38;6.10;;;5.15;;
10383;SDS011;5238;43.508;4.980;2023-05-16T02:53:08;5.90;;;5.30;;
10383;SDS011;5238;43.508;4.980;2023-05-16T02:55:34;6.53;;;5.93;;
10383;SDS011;5238;43.508;4.980;2023-05-16T02:58:01;7.30;;;5.45;;
10383;SDS011;5238;43.508;4.980;2023-05-16T03:00:31;6.07;;;5.57;;
10383;SDS011;5238;43.508;4.980;2023-05-16T03:02:58;6.72;;;6.13;;
10383;SDS011;5238;43.508;4.980;2023-05-16T03:05:31;6.10;;;5.53;;
10383;SDS011;5238;43.508;4.980;2023-05-16T03:08:02;6.20;;;5.55;;
10383;SDS011;5238;43.508;4.980;2023-05-16T03:10:29;6.25;;;5.30;;
10383;SDS011;5238;43.508;4.980;2023-05-16T03:12:58;5.68;;;5.10;;
10383;SDS011;5238;43.508;4.980;2023-05-16T03:15:25;6.30;;;5.57;;
10383;SDS011;5238;43.508;4.980;2023-05-16T03:17:52;6.25;;;5.75;;
10383;SDS011;5238;43.508;4.980;2023-05-16T03:20:19;6.60;;;6.00;;
10383;SDS011;5238;43.508;4.980;2023-05-16T03:22:46;6.53;;;5.93;;
10383;SDS011;5238;43.508;4.980;2023-05-16T03:25:15;6.10;;;5.38;;
10383;SDS011;5238;43.508;4.980;2023-05-16T03:27:42;6.20;;;5.70;;
10383;SDS011;5238;43.508;4.980;2023-05-16T03:30:09;5.38;;;4.90;;
10383;SDS011;5238;43.508;4.980;2023-05-16T03:32:39;6.50;;;5.90;;
10383;SDS011;5238;43.508;4.980;2023-05-16T03:35:07;6.65;;;5.85;;
10383;SDS011;5238;43.508;4.980;2023-05-16T03:37:35;6.00;;;5.30;;
10383;SDS011;5238;43.508;4.980;2023-05-16T03:40:04;6.07;;;5.57;;
10383;SDS011;5238;43.508;4.980;2023-05-16T03:42:43;6.10;;;5.60;;
10383;SDS011;5238;43.508;4.980;2023-05-16T03:45:10;6.68;;;6.18;;
10383;SDS011;5238;43.508;4.980;2023-05-16T03:47:38;7.45;;;5.80;;
10383;SDS011;5238;43.508;4.980;2023-05-16T03:50:07;6.43;;;5.68;;
10383;SDS011;5238;43.508;4.980;2023-05-16T03:52:35;6.13;;;5.57;;
10383;SDS011;5238;43.508;4.980;2023-05-16T03:55:02;7.07;;;6.47;;
10383;SDS011;5238;43.508;4.980;2023-05-16T03:57:29;7.38;;;5.47;;
10383;SDS011;5238;43.508;4.980;2023-05-16T03:59:58;6.07;;;5.57;;
10383;SDS011;5238;43.508;4.980;2023-05-16T04:02:25;15.05;;;6.30;;
10383;SDS011;5238;43.508;4.980;2023-05-16T04:04:55;6.63;;;6.03;;
10383;SDS011;5238;43.508;4.980;2023-05-16T04:07:24;6.53;;;5.93;;
10383;SDS011;5238;43.508;4.980;2023-05-16T04:09:53;7.15;;;6.45;;
10383;SDS011;5238;43.508;4.980;2023-05-16T04:12:20;7.03;;;6.43;;
10383;SDS011;5238;43.508;4.980;2023-05-16T04:14:47;8.98;;;7.03;;
10383;SDS011;5238;43.508;4.980;2023-05-16T04:17:20;7.13;;;6.13;;
10383;SDS011;5238;43.508;4.980;2023-05-16T04:19:48;7.85;;;6.90;;
10383;SDS011;5238;43.508;4.980;2023-05-16T04:22:20;9.30;;;6.80;;
10383;SDS011;5238;43.508;4.980;2023-05-16T04:24:49;8.30;;;7.50;;
10383;SDS011;5238;43.508;4.980;2023-05-16T04:27:16;10.10;;;7.47;;
10383;SDS011;5238;43.508;4.980;2023-05-16T04:29:47;7.70;;;6.97;;
10383;SDS011;5238;43.508;4.980;2023-05-16T04:32:20;7.90;;;7.20;;
10383;SDS011;5238;43.508;4.980;2023-05-16T04:34:51;8.50;;;6.60;;
10383;SDS011;5238;43.508;4.980;2023-05-16T04:37:18;8.10;;;7.22;;
10383;SDS011;5238;43.508;4.980;2023-05-16T04:39:50;7.72;;;6.30;;
10383;SDS011;5238;43.508;4.980;2023-05-16T04:42:18;7.00;;;6.30;;
10383;SDS011;5238;43.508;4.980;2023-05-16T04:44:45;8.52;;;7.00;;
10383;SDS011;5238;43.508;4.980;2023-05-16T04:47:14;7.95;;;6.75;;
10383;SDS011;5238;43.508;4.980;2023-05-16T04:49:43;6.72;;;5.95;;
10383;SDS011;5238;43.508;4.980;2023-05-16T04:52:10;8.38;;;6.65;;
10383;SDS011;5238;43.508;4.980;2023-05-16T04:54:37;8.48;;;6.82;;
10383;SDS011;5238;43.508;4.980;2023-05-16T04:57:04;7.72;;;7.03;;
10383;SDS011;5238;43.508;4.980;2023-05-16T04:59:34;8.13;;;6.85;;
10383;SDS011;5238;43.508;4.980;2023-05-16T05:02:02;8.77;;;7.97;;
10383;SDS011;5238;43.508;4.980;2023-05-16T05:04:30;8.23;;;7.43;;
10383;SDS011;5238;43.508;4.980;2023-05-16T05:07:02;7.80;;;7.00;;
10383;SDS011;5238;43.508;4.980;2023-05-16T05:09:29;9.75;;;8.73;;
10383;SDS011;5238;43.508;4.980;2023-05-16T05:11:58;7.95;;;7.07;;
10383;SDS011;5238;43.508;4.980;2023-05-16T05:14:28;9.00;;;7.68;;
10383;SDS011;5238;43.508;4.980;2023-05-16T05:16:57;8.27;;;7.40;;
10383;SDS011;5238;43.508;4.980;2023-05-16T05:19:24;9.50;;;6.57;;
10383;SDS011;5238;43.508;4.980;2023-05-16T05:21:53;7.57;;;6.88;;
10383;SDS011;5238;43.508;4.980;2023-05-16T05:24:25;8.40;;;7.40;;
10383;SDS011;5238;43.508;4.980;2023-05-16T05:26:52;8.57;;;7.47;;
10383;SDS011;5238;43.508;4.980;2023-05-16T05:29:18;7.88;;;7.07;;
10383;SDS011;5238;43.508;4.980;2023-05-16T05:31:47;7.75;;;7.05;;
10383;SDS011;5238;43.508;4.980;2023-05-16T05:34:16;9.35;;;7.10;;
10383;SDS011;5238;43.508;4.980;2023-05-16T05:36:45;9.15;;;8.20;;
10383;SDS011;5238;43.508;4.980;2023-05-16T05:39:14;8.50;;;6.68;;
10383;SDS011;5238;43.508;4.980;2023-05-16T05:47:58;8.93;;;8.00;;
10383;SDS011;5238;43.508;4.980;2023-05-16T05:50:29;9.30;;;7.95;;
10383;SDS011;5238;43.508;4.980;2023-05-16T05:56:06;8.80;;;8.00;;
10383;SDS011;5238;43.508;4.980;2023-05-16T05:58:41;9.48;;;8.57;;
10383;SDS011;5238;43.508;4.980;2023-05-16T06:01:13;8.27;;;7.45;;
10383;SDS011;5238;43.508;4.980;2023-05-16T06:03:42;11.20;;;7.70;;
10383;SDS011;5238;43.508;4.980;2023-05-16T06:06:13;7.90;;;7.10;;
10383;SDS011;5238;43.508;4.980;2023-05-16T06:08:57;7.68;;;6.97;;
10383;SDS011;5238;43.508;4.980;2023-05-16T06:14:49;8.50;;;6.20;;
10383;SDS011;5238;43.508;4.980;2023-05-16T06:17:20;7.80;;;7.03;;
10383;SDS011;5238;43.508;4.980;2023-05-16T06:20:05;8.85;;;7.03;;
10383;SDS011;5238;43.508;4.980;2023-05-16T06:25:21;7.90;;;7.10;;
10383;SDS011;5238;43.508;4.980;2023-05-16T06:31:10;7.30;;;6.60;;
10383;SDS011;5238;43.508;4.980;2023-05-16T06:33:50;8.38;;;7.55;;
10383;SDS011;5238;43.508;4.980;2023-05-16T06:43:13;8.80;;;7.90;;
10383;SDS011;5238;43.508;4.980;2023-05-16T07:22:12;7.68;;;5.70;;
10383;SDS011;5238;43.508;4.980;2023-05-16T07:24:40;6.55;;;5.78;;
10383;SDS011;5238;43.508;4.980;2023-05-16T07:30:32;7.28;;;6.10;;
10383;SDS011;5238;43.508;4.980;2023-05-16T07:32:59;8.45;;;6.63;;
10383;SDS011;5238;43.508;4.980;2023-05-16T07:35:26;16.27;;;6.78;;
10383;SDS011;5238;43.508;4.980;2023-05-16T07:37:57;7.88;;;6.60;;
10383;SDS011;5238;43.508;4.980;2023-05-16T07:53:12;10.23;;;6.03;;
10383;SDS011;5238;43.508;4.980;2023-05-16T08:44:14;13.00;;;5.10;;
10383;SDS011;5238;43.508;4.980;2023-05-16T08:53:30;7.20;;;4.88;;
10383;SDS011;5238;43.508;4.980;2023-05-16T08:56:51;7.22;;;5.95;;
10383;SDS011;5238;43.508;4.980;2023-05-16T09:17:55;7.88;;;4.43;;
10383;SDS011;5238;43.508;4.980;2023-05-16T09:20:26;8.57;;;4.82;;
10383;SDS011;5238;43.508;4.980;2023-05-16T09:22:53;4.95;;;3.97;;
10383;SDS011;5238;43.508;4.980;2023-05-16T09:25:22;6.70;;;4.70;;
10383;SDS011;5238;43.508;4.980;2023-05-16T09:27:51;5.43;;;4.47;;
10383;SDS011;5238;43.508;4.980;2023-05-16T09:30:20;6.05;;;4.45;;
10383;SDS011;5238;43.508;4.980;2023-05-16T09:32:50;8.82;;;4.28;;
10383;SDS011;5238;43.508;4.980;2023-05-16T09:35:19;7.15;;;4.22;;
10383;SDS011;5238;43.508;4.980;2023-05-16T09:37:47;8.98;;;4.28;;
10383;SDS011;5238;43.508;4.980;2023-05-16T09:40:19;4.82;;;3.55;;
10383;SDS011;5238;43.508;4.980;2023-05-16T09:42:46;7.53;;;4.07;;
10383;SDS011;5238;43.508;4.980;2023-05-16T09:45:13;9.80;;;4.70;;
10383;SDS011;5238;43.508;4.980;2023-05-16T09:47:41;8.75;;;4.20;;
10383;SDS011;5238;43.508;4.980;2023-05-16T09:50:14;7.35;;;4.82;;
10383;SDS011;5238;43.508;4.980;2023-05-16T09:53:01;7.30;;;4.10;;
10383;SDS011;5238;43.508;4.980;2023-05-16T09:55:29;8.10;;;4.43;;
10383;SDS011;5238;43.508;4.980;2023-05-16T09:57:57;7.22;;;4.50;;
10383;SDS011;5238;43.508;4.980;2023-05-16T10:00:27;6.78;;;4.13;;
10383;SDS011;5238;43.508;4.980;2023-05-16T10:02:58;8.10;;;4.43;;
10383;SDS011;5238;43.508;4.980;2023-05-16T10:05:32;5.45;;;4.40;;
10383;SDS011;5238;43.508;4.980;2023-05-16T10:08:21;12.02;;;5.47;;
10383;SDS011;5238;43.508;4.980;2023-05-16T10:10:53;7.00;;;5.13;;
10383;SDS011;5238;43.508;4.980;2023-05-16T10:13:21;6.72;;;5.10;;
10383;SDS011;5238;43.508;4.980;2023-05-16T10:15:49;8.82;;;4.45;;
10383;SDS011;5238;43.508;4.980;2023-05-16T10:18:20;11.32;;;5.03;;
10383;SDS011;5238;43.508;4.980;2023-05-16T10:20:50;8.02;;;4.10;;
10383;SDS011;5238;43.508;4.980;2023-05-16T10:23:23;4.85;;;3.72;;
10383;SDS011;5238;43.508;4.980;2023-05-16T10:25:51;9.70;;;4.63;;
10383;SDS011;5238;43.508;4.980;2023-05-16T10:28:20;6.70;;;3.95;;
10383;SDS011;5238;43.508;4.980;2023-05-16T10:30:49;4.72;;;4.30;;
10383;SDS011;5238;43.508;4.980;2023-05-16T10:33:17;8.13;;;4.07;;
10383;SDS011;5238;43.508;4.980;2023-05-16T10:35:58;6.68;;;4.03;;
10383;SDS011;5238;43.508;4.980;2023-05-16T10:38:27;8.80;;;4.38;;
10383;SDS011;5238;43.508;4.980;2023-05-16T10:40:55;7.97;;;4.35;;
10383;SDS011;5238;43.508;4.980;2023-05-16T10:43:24;8.68;;;4.40;;
10383;SDS011;5238;43.508;4.980;2023-05-16T10:46:10;4.47;;;3.75;;
10383;SDS011;5238;43.508;4.980;2023-05-16T10:48:40;6.60;;;3.92;;
10383;SDS011;5238;43.508;4.980;2023-05-16T10:54:04;5.07;;;3.13;;
10383;SDS011;5238;43.508;4.980;2023-05-16T10:56:34;6.75;;;3.22;;
10383;SDS011;5238;43.508;4.980;2023-05-16T10:59:01;7.68;;;3.75;;
10383;SDS011;5238;43.508;4.980;2023-05-16T11:01:31;6.57;;;3.47;;
10383;SDS011;5238;43.508;4.980;2023-05-16T11:04:00;4.35;;;3.38;;
10383;SDS011;5238;43.508;4.980;2023-05-16T11:06:32;3.97;;;3.55;;
10383;SDS011;5238;43.508;4.980;2023-05-16T11:09:05;12.00;;;3.67;;
10383;SDS011;5238;43.508;4.980;2023-05-16T11:11:38;6.85;;;3.40;;
10383;SDS011;5238;43.508;4.980;2023-05-16T11:14:15;5.72;;;3.42;;
10383;SDS011;5238;43.508;4.980;2023-05-16T11:16:47;8.35;;;3.60;;
10383;SDS011;5238;43.508;4.980;2023-05-16T11:19:27;6.32;;;3.53;;
10383;SDS011;5238;43.508;4.980;2023-05-16T11:22:08;3.78;;;3.10;;
10383;SDS011;5238;43.508;4.980;2023-05-16T11:30:22;4.70;;;3.17;;
10383;SDS011;5238;43.508;4.980;2023-05-16T11:32:50;3.80;;;2.83;;
10383;SDS011;5238;43.508;4.980;2023-05-16T11:35:20;8.10;;;3.65;;
10383;SDS011;5238;43.508;4.980;2023-05-16T11:37:48;12.60;;;3.00;;
10383;SDS011;5238;43.508;4.980;2023-05-16T11:40:16;6.22;;;3.10;;
10383;SDS011;5238;43.508;4.980;2023-05-16T11:42:44;7.15;;;3.35;;
10383;SDS011;5238;43.508;4.980;2023-05-16T11:45:13;3.65;;;3.35;;
10383;SDS011;5238;43.508;4.980;2023-05-16T11:47:42;5.05;;;3.80;;
10383;SDS011;5238;43.508;4.980;2023-05-16T11:50:10;8.32;;;3.60;;
10383;SDS011;5238;43.508;4.980;2023-05-16T11:52:38;6.32;;;3.58;;
10383;SDS011;5238;43.508;4.980;2023-05-16T11:55:10;7.53;;;3.40;;
10383;SDS011;5238;43.508;4.980;2023-05-16T11:57:42;6.57;;;3.15;;
10383;SDS011;5238;43.508;4.980;2023-05-16T12:00:19;6.22;;;3.33;;
10383;SDS011;5238;43.508;4.980;2023-05-16T12:02:48;6.68;;;3.03;;
10383;SDS011;5238;43.508;4.980;2023-05-16T12:05:16;6.40;;;3.05;;
10383;SDS011;5238;43.508;4.980;2023-05-16T12:07:46;4.95;;;3.13;;
10383;SDS011;5238;43.508;4.980;2023-05-16T12:10:14;6.82;;;3.30;;
10383;SDS011;5238;43.508;4.980;2023-05-16T12:12:43;9.63;;;3.67;;
10383;SDS011;5238;43.508;4.980;2023-05-16T12:15:11;5.43;;;3.17;;
10383;SDS011;5238;43.508;4.980;2023-05-16T12:17:41;6.70;;;3.63;;
10383;SDS011;5238;43.508;4.980;2023-05-16T12:20:09;9.35;;;3.90;;
10383;SDS011;5238;43.508;4.980;2023-05-16T12:22:38;5.72;;;3.50;;
10383;SDS011;5238;43.508;4.980;2023-05-16T12:25:21;10.25;;;3.55;;
10383;SDS011;5238;43.508;4.980;2023-05-16T12:27:50;8.65;;;3.88;;
10383;SDS011;5238;43.508;4.980;2023-05-16T12:30:21;6.18;;;3.45;;
10383;SDS011;5238;43.508;4.980;2023-05-16T12:32:54;7.40;;;3.78;;
10383;SDS011;5238;43.508;4.980;2023-05-16T12:35:22;8.98;;;4.00;;
10383;SDS011;5238;43.508;4.980;2023-05-16T12:37:49;6.72;;;4.07;;
10383;SDS011;5238;43.508;4.980;2023-05-16T12:40:16;10.13;;;4.40;;
10383;SDS011;5238;43.508;4.980;2023-05-16T12:42:44;6.45;;;3.97;;
10383;SDS011;5238;43.508;4.980;2023-05-16T12:45:15;6.95;;;4.28;;
10383;SDS011;5238;43.508;4.980;2023-05-16T12:47:44;11.23;;;4.60;;
10383;SDS011;5238;43.508;4.980;2023-05-16T12:50:12;5.38;;;4.15;;
10383;SDS011;5238;43.508;4.980;2023-05-16T12:52:48;8.15;;;4.15;;
10383;SDS011;5238;43.508;4.980;2023-05-16T12:55:16;7.60;;;4.07;;
10383;SDS011;5238;43.508;4.980;2023-05-16T12:57:43;7.93;;;4.22;;
10383;SDS011;5238;43.508;4.980;2023-05-16T13:00:12;7.43;;;4.10;;
10383;SDS011;5238;43.508;4.980;2023-05-16T13:02:40;8.20;;;4.10;;
10383;SDS011;5238;43.508;4.980;2023-05-16T13:05:15;8.73;;;4.03;;
10383;SDS011;5238;43.508;4.980;2023-05-16T13:07:50;5.82;;;4.10;;
10383;SDS011;5238;43.508;4.980;2023-05-16T13:10:32;5.47;;;3.90;;
10383;SDS011;5238;43.508;4.980;2023-05-16T13:13:13;6.25;;;3.65;;
10383;SDS011;5238;43.508;4.980;2023-05-16T13:15:42;6.03;;;3.85;;
10383;SDS011;5238;43.508;4.980;2023-05-16T13:18:12;6.60;;;3.78;;
10383;SDS011;5238;43.508;4.980;2023-05-16T13:20:41;7.43;;;4.20;;
10383;SDS011;5238;43.508;4.980;2023-05-16T13:23:08;6.90;;;3.88;;
10383;SDS011;5238;43.508;4.980;2023-05-16T13:25:44;5.38;;;3.83;;
10383;SDS011;5238;43.508;4.980;2023-05-16T13:28:11;7.22;;;3.90;;
10383;SDS011;5238;43.508;4.980;2023-05-16T13:30:38;4.47;;;3.83;;
10383;SDS011;5238;43.508;4.980;2023-05-16T13:33:20;7.28;;;4.05;;
10383;SDS011;5238;43.508;4.980;2023-05-16T13:35:50;8.88;;;3.65;;
10383;SDS011;5238;43.508;4.980;2023-05-16T13:38:31;10.07;;;3.70;;
10383;SDS011;5238;43.508;4.980;2023-05-16T13:41:00;5.35;;;3.63;;
10383;SDS011;5238;43.508;4.980;2023-05-16T13:43:47;9.10;;;3.72;;
10383;SDS011;5238;43.508;4.980;2023-05-16T13:46:16;5.97;;;3.90;;
10383;SDS011;5238;43.508;4.980;2023-05-16T13:48:46;8.00;;;3.80;;
10383;SDS011;5238;43.508;4.980;2023-05-16T13:51:16;6.70;;;3.53;;
10383;SDS011;5238;43.508;4.980;2023-05-16T13:53:58;4.45;;;2.78;;
10383;SDS011;5238;43.508;4.980;2023-05-16T13:56:33;6.90;;;3.42;;
10383;SDS011;5238;43.508;4.980;2023-05-16T13:59:02;6.70;;;3.30;;
10383;SDS011;5238;43.508;4.980;2023-05-16T14:01:31;9.77;;;3.25;;
10383;SDS011;5238;43.508;4.980;2023-05-16T14:03:58;6.45;;;3.03;;
10383;SDS011;5238;43.508;4.980;2023-05-16T14:06:27;8.63;;;3.40;;
10383;SDS011;5238;43.508;4.980;2023-05-16T14:08:55;6.47;;;3.72;;
10383;SDS011;5238;43.508;4.980;2023-05-16T14:11:22;8.35;;;3.67;;
10383;SDS011;5238;43.508;4.980;2023-05-16T14:13:51;4.72;;;3.10;;
10383;SDS011;5238;43.508;4.980;2023-05-16T14:16:18;6.07;;;3.15;;
10383;SDS011;5238;43.508;4.980;2023-05-16T14:18:46;9.02;;;3.83;;
10383;SDS011;5238;43.508;4.980;2023-05-16T14:21:14;4.90;;;3.22;;
10383;SDS011;5238;43.508;4.980;2023-05-16T14:26:31;5.53;;;3.58;;
10383;SDS011;5238;43.508;4.980;2023-05-16T14:28:58;6.90;;;3.25;;
10383;SDS011;5238;43.508;4.980;2023-05-16T14:31:40;8.90;;;3.63;;
10383;SDS011;5238;43.508;4.980;2023-05-16T14:34:14;4.03;;;3.20;;
10383;SDS011;5238;43.508;4.980;2023-05-16T14:36:41;5.22;;;3.00;;
10383;SDS011;5238;43.508;4.980;2023-05-16T14:39:18;5.93;;;2.65;;
10383;SDS011;5238;43.508;4.980;2023-05-16T14:41:47;8.32;;;3.13;;
10383;SDS011;5238;43.508;4.980;2023-05-16T14:44:18;7.18;;;3.10;;
10383;SDS011;5238;43.508;4.980;2023-05-16T14:46:45;4.45;;;2.60;;
10383;SDS011;5238;43.508;4.980;2023-05-16T14:49:12;4.90;;;2.63;;
10383;SDS011;5238;43.508;4.980;2023-05-16T14:51:41;10.20;;;2.85;;
10383;SDS011;5238;43.508;4.980;2023-05-16T14:54:09;3.50;;;2.95;;
10383;SDS011;5238;43.508;4.980;2023-05-16T14:56:43;6.20;;;2.58;;
10383;SDS011;5238;43.508;4.980;2023-05-16T14:59:10;3.72;;;2.60;;
10383;SDS011;5238;43.508;4.980;2023-05-16T15:01:38;6.47;;;3.08;;
10383;SDS011;5238;43.508;4.980;2023-05-16T15:04:06;5.78;;;2.60;;
10383;SDS011;5238;43.508;4.980;2023-05-16T15:06:33;5.35;;;2.92;;
10383;SDS011;5238;43.508;4.980;2023-05-16T15:09:00;5.70;;;2.60;;
10383;SDS011;5238;43.508;4.980;2023-05-16T15:11:31;5.97;;;2.58;;
10383;SDS011;5238;43.508;4.980;2023-05-16T15:13:59;4.57;;;2.33;;
10383;SDS011;5238;43.508;4.980;2023-05-16T15:16:28;4.22;;;2.47;;
10383;SDS011;5238;43.508;4.980;2023-05-16T15:18:55;4.63;;;2.50;;
10383;SDS011;5238;43.508;4.980;2023-05-16T15:21:22;3.75;;;2.30;;
10383;SDS011;5238;43.508;4.980;2023-05-16T15:23:50;6.22;;;2.63;;
10383;SDS011;5238;43.508;4.980;2023-05-16T15:26:19;8.23;;;3.17;;
10383;SDS011;5238;43.508;4.980;2023-05-16T15:28:46;4.93;;;2.85;;
10383;SDS011;5238;43.508;4.980;2023-05-16T15:31:16;7.80;;;2.88;;
10383;SDS011;5238;43.508;4.980;2023-05-16T15:33:58;5.10;;;2.75;;
10383;SDS011;5238;43.508;4.980;2023-05-16T15:36:39;5.20;;;2.78;;
10383;SDS011;5238;43.508;4.980;2023-05-16T15:39:15;6.22;;;2.55;;
10383;SDS011;5238;43.508;4.980;2023-05-16T15:41:49;4.07;;;2.53;;
10383;SDS011;5238;43.508;4.980;2023-05-16T15:44:18;5.00;;;2.80;;
10383;SDS011;5238;43.508;4.980;2023-05-16T15:47:02;5.35;;;2.75;;
10383;SDS011;5238;43.508;4.980;2023-05-16T15:49:31;5.05;;;2.58;;
10383;SDS011;5238;43.508;4.980;2023-05-16T15:51:58;10.85;;;2.65;;
10383;SDS011;5238;43.508;4.980;2023-05-16T15:54:26;4.70;;;2.47;;
10383;SDS011;5238;43.508;4.980;2023-05-16T15:56:54;4.53;;;2.63;;
10383;SDS011;5238;43.508;4.980;2023-05-16T15:59:38;4.70;;;2.70;;
10383;SDS011;5238;43.508;4.980;2023-05-16T16:02:23;4.88;;;2.67;;
10383;SDS011;5238;43.508;4.980;2023-05-16T16:04:55;6.82;;;2.53;;
10383;SDS011;5238;43.508;4.980;2023-05-16T16:07:26;4.95;;;2.63;;
10383;SDS011;5238;43.508;4.980;2023-05-16T16:10:07;5.78;;;2.75;;
10383;SDS011;5238;43.508;4.980;2023-05-16T16:12:57;4.25;;;2.22;;
10383;SDS011;5238;43.508;4.980;2023-05-16T16:15:28;6.63;;;2.75;;
10383;SDS011;5238;43.508;4.980;2023-05-16T16:20:48;5.45;;;2.67;;
10383;SDS011;5238;43.508;4.980;2023-05-16T16:26:11;6.50;;;2.08;;
10383;SDS011;5238;43.508;4.980;2023-05-16T16:28:46;6.30;;;1.90;;
10383;SDS011;5238;43.508;4.980;2023-05-16T16:31:16;2.10;;;1.90;;
10383;SDS011;5238;43.508;4.980;2023-05-16T16:33:53;2.53;;;1.83;;
10383;SDS011;5238;43.508;4.980;2023-05-16T16:36:20;2.95;;;2.00;;
10383;SDS011;5238;43.508;4.980;2023-05-16T16:38:55;6.18;;;1.95;;
10383;SDS011;5238;43.508;4.980;2023-05-16T16:41:24;4.38;;;1.83;;
10383;SDS011;5238;43.508;4.980;2023-05-16T16:43:51;4.00;;;2.10;;
10383;SDS011;5238;43.508;4.980;2023-05-16T16:46:32;3.50;;;1.80;;
10383;SDS011;5238;43.508;4.980;2023-05-16T16:49:39;3.25;;;1.80;;
10383;SDS011;5238;43.508;4.980;2023-05-16T16:52:07;4.35;;;1.90;;
10383;SDS011;5238;43.508;4.980;2023-05-16T16:54:49;4.63;;;2.30;;
10383;SDS011;5238;43.508;4.980;2023-05-16T16:57:30;7.05;;;2.72;;
10383;SDS011;5238;43.508;4.980;2023-05-16T17:00:07;4.22;;;2.03;;
10383;SDS011;5238;43.508;4.980;2023-05-16T17:02:40;4.63;;;2.20;;
10383;SDS011;5238;43.508;4.980;2023-05-16T17:05:28;3.22;;;2.00;;
10383;SDS011;5238;43.508;4.980;2023-05-16T17:07:59;5.22;;;2.17;;
10383;SDS011;5238;43.508;4.980;2023-05-16T17:10:29;4.53;;;2.20;;
10383;SDS011;5238;43.508;4.980;2023-05-16T17:13:04;4.65;;;2.15;;
10383;SDS011;5238;43.508;4.980;2023-05-16T17:15:34;3.25;;;2.58;;
10383;SDS011;5238;43.508;4.980;2023-05-16T17:18:02;4.20;;;2.13;;
10383;SDS011;5238;43.508;4.980;2023-05-16T17:20:33;2.83;;;2.05;;
10383;SDS011;5238;43.508;4.980;2023-05-16T17:23:00;4.32;;;2.50;;
10383;SDS011;5238;43.508;4.980;2023-05-16T17:25:28;3.38;;;2.28;;
10383;SDS011;5238;43.508;4.980;2023-05-16T17:27:55;3.92;;;1.88;;
10383;SDS011;5238;43.508;4.980;2023-05-16T17:30:23;5.32;;;2.10;;
10383;SDS011;5238;43.508;4.980;2023-05-16T17:32:53;3.58;;;2.20;;
10383;SDS011;5238;43.508;4.980;2023-05-16T17:35:20;5.68;;;2.17;;
10383;SDS011;5238;43.508;4.980;2023-05-16T17:37:49;5.55;;;2.30;;
10383;SDS011;5238;43.508;4.980;2023-05-16T17:40:17;6.85;;;2.45;;
10383;SDS011;5238;43.508;4.980;2023-05-16T17:42:46;11.73;;;2.08;;
10383;SDS011;5238;43.508;4.980;2023-05-16T17:45:30;2.67;;;2.00;;
10383;SDS011;5238;43.508;4.980;2023-05-16T17:48:11;3.35;;;2.10;;
10383;SDS011;5238;43.508;4.980;2023-05-16T17:50:52;4.40;;;2.35;;
10383;SDS011;5238;43.508;4.980;2023-05-16T17:53:27;5.00;;;2.28;;
10383;SDS011;5238;43.508;4.980;2023-05-16T17:55:55;3.28;;;1.83;;
10383;SDS011;5238;43.508;4.980;2023-05-16T17:58:36;5.65;;;2.38;;
10383;SDS011;5238;43.508;4.980;2023-05-16T18:01:12;4.47;;;2.05;;
10383;SDS011;5238;43.508;4.980;2023-05-16T18:03:43;2.28;;;1.70;;
10383;SDS011;5238;43.508;4.980;2023-05-16T18:06:25;3.42;;;1.70;;
10383;SDS011;5238;43.508;4.980;2023-05-16T18:09:03;5.55;;;2.00;;
10383;SDS011;5238;43.508;4.980;2023-05-16T18:11:45;5.78;;;2.00;;